sensor_id;sensor_type;location;lat;lon;timestamp;temperature;humidity
1880;DHT22;49285;49.002;8.390;2022-12-10T00:02:10;5.50;99.90
1880;DHT22;49285;49.002;8.390;2022-12-10T00:04:35;5.50;99.90
1880;DHT22;49285;49.002;8.390;2022-12-10T00:07:01;5.40;99.90
1880;DHT22;49285;49.002;8.390;2022-12-10T00:09:26;5.50;99.90
1880;DHT22;49285;49.002;8.390;2022-12-10T00:11:52;5.50;99.90
1880;DHT22;49285;49.002;8.390;2022-12-10T00:14:17;5.40;99.90
1880;DHT22;49285;49.002;8.390;2022-12-10T00:16:43;5.40;99.90
1880;DHT22;49285;49.002;8.390;2022-12-10T00:19:09;5.40;99.90
1880;DHT22;49285;49.002;8.390;2022-12-10T00:21:35;5.40;99.90
1880;DHT22;49285;49.002;8.390;2022-12-10T00:24:02;5.40;99.90
1880;DHT22;49285;49.002;8.390;2022-12-10T00:26:31;5.40;99.90
1880;DHT22;49285;49.002;8.390;2022-12-10T00:28:57;5.40;99.90
1880;DHT22;49285;49.002;8.390;2022-12-10T00:31:26;5.40;99.90
1880;DHT22;49285;49.002;8.390;2022-12-10T00:33:57;5.40;99.90
1880;DHT22;49285;49.002;8.390;2022-12-10T00:36:26;5.30;99.90
1880;DHT22;49285;49.002;8.390;2022-12-10T00:38:52;5.30;99.90
1880;DHT22;49285;49.002;8.390;2022-12-10T00:41:17;5.30;99.90
1880;DHT22;49285;49.002;8.390;2022-12-10T00:43:43;5.30;99.90
1880;DHT22;49285;49.002;8.390;2022-12-10T00:46:10;5.30;99.90
1880;DHT22;49285;49.002;8.390;2022-12-10T00:48:36;5.30;99.90
1880;DHT22;49285;49.002;8.390;2022-12-10T00:51:05;5.30;99.90
1880;DHT22;49285;49.002;8.390;2022-12-10T00:53:32;5.20;99.90
1880;DHT22;49285;49.002;8.390;2022-12-10T00:55:59;5.20;99.90
1880;DHT22;49285;49.002;8.390;2022-12-10T00:58:30;5.20;99.90
1880;DHT22;49285;49.002;8.390;2022-12-10T01:03:32;5.20;99.90
1880;DHT22;49285;49.002;8.390;2022-12-10T01:06:07;5.20;99.90
1880;DHT22;49285;49.002;8.390;2022-12-10T01:08:32;5.20;99.90
1880;DHT22;49285;49.002;8.390;2022-12-10T01:10:58;5.20;99.90
1880;DHT22;49285;49.002;8.390;2022-12-10T01:13:23;5.20;99.90
1880;DHT22;49285;49.002;8.390;2022-12-10T01:15:49;5.20;99.90
1880;DHT22;49285;49.002;8.390;2022-12-10T01:18:14;5.10;99.90
1880;DHT22;49285;49.002;8.390;2022-12-10T01:20:40;5.10;99.90
1880;DHT22;49285;49.002;8.390;2022-12-10T01:23:05;5.10;99.90
1880;DHT22;49285;49.002;8.390;2022-12-10T01:25:31;5.20;99.90
1880;DHT22;49285;49.002;8.390;2022-12-10T01:27:57;5.20;99.90
1880;DHT22;49285;49.002;8.390;2022-12-10T01:30:22;5.20;99.90
1880;DHT22;49285;49.002;8.390;2022-12-10T01:32:48;5.20;99.90
1880;DHT22;49285;49.002;8.390;2022-12-10T01:35:13;5.20;99.90
1880;DHT22;49285;49.002;8.390;2022-12-10T01:37:39;5.20;99.90
1880;DHT22;49285;49.002;8.390;2022-12-10T01:40:05;5.20;99.90
1880;DHT22;49285;49.002;8.390;2022-12-10T01:42:31;5.20;99.90
1880;DHT22;49285;49.002;8.390;2022-12-10T01:45:03;5.20;99.90
1880;DHT22;49285;49.002;8.390;2022-12-10T01:47:29;5.20;99.90
1880;DHT22;49285;49.002;8.390;2022-12-10T01:49:55;5.20;99.90
1880;DHT22;49285;49.002;8.390;2022-12-10T01:52:22;5.20;99.90
1880;DHT22;49285;49.002;8.390;2022-12-10T01:54:48;5.20;99.90
1880;DHT22;49285;49.002;8.390;2022-12-10T01:57:23;5.20;99.90
1880;DHT22;49285;49.002;8.390;2022-12-10T01:59:55;5.20;99.90
1880;DHT22;49285;49.002;8.390;2022-12-10T02:02:42;5.10;99.90
1880;DHT22;49285;49.002;8.390;2022-12-10T02:05:36;5.20;99.90
1880;DHT22;49285;49.002;8.390;2022-12-10T02:08:22;5.20;99.90
1880;DHT22;49285;49.002;8.390;2022-12-10T02:11:17;5.10;99.90
1880;DHT22;49285;49.002;8.390;2022-12-10T02:13:56;5.10;99.90
1880;DHT22;49285;49.002;8.390;2022-12-10T02:16:34;5.10;99.90
1880;DHT22;49285;49.002;8.390;2022-12-10T02:21:39;5.10;99.90
1880;DHT22;49285;49.002;8.390;2022-12-10T02:24:08;5.10;99.90
1880;DHT22;49285;49.002;8.390;2022-12-10T02:29:16;5.10;99.90
1880;DHT22;49285;49.002;8.390;2022-12-10T02:31:55;5.10;99.90
1880;DHT22;49285;49.002;8.390;2022-12-10T02:34:23;5.10;99.90
1880;DHT22;49285;49.002;8.390;2022-12-10T02:36:51;5.10;99.90
1880;DHT22;49285;49.002;8.390;2022-12-10T02:39:22;5.10;99.90
1880;DHT22;49285;49.002;8.390;2022-12-10T02:41:53;5.10;99.90
1880;DHT22;49285;49.002;8.390;2022-12-10T02:44:20;5.10;99.90
1880;DHT22;49285;49.002;8.390;2022-12-10T02:46:50;5.10;99.90
1880;DHT22;49285;49.002;8.390;2022-12-10T02:49:17;5.10;99.90
1880;DHT22;49285;49.002;8.390;2022-12-10T02:51:43;5.10;99.90
1880;DHT22;49285;49.002;8.390;2022-12-10T02:54:34;5.10;99.90
1880;DHT22;49285;49.002;8.390;2022-12-10T02:57:08;5.10;99.90
1880;DHT22;49285;49.002;8.390;2022-12-10T03:02:13;5.10;99.90
1880;DHT22;49285;49.002;8.390;2022-12-10T03:05:04;5.00;99.90
1880;DHT22;49285;49.002;8.390;2022-12-10T03:07:37;5.00;99.90
1880;DHT22;49285;49.002;8.390;2022-12-10T03:10:28;5.00;99.90
1880;DHT22;49285;49.002;8.390;2022-12-10T03:13:06;5.00;99.90
1880;DHT22;49285;49.002;8.390;2022-12-10T03:15:34;5.00;99.90
1880;DHT22;49285;49.002;8.390;2022-12-10T03:18:04;5.00;99.90
1880;DHT22;49285;49.002;8.390;2022-12-10T03:20:38;4.90;99.90
1880;DHT22;49285;49.002;8.390;2022-12-10T03:23:07;4.90;99.90
1880;DHT22;49285;49.002;8.390;2022-12-10T03:25:34;4.90;99.90
1880;DHT22;49285;49.002;8.390;2022-12-10T03:28:01;4.90;99.90
1880;DHT22;49285;49.002;8.390;2022-12-10T03:30:28;4.90;99.90
1880;DHT22;49285;49.002;8.390;2022-12-10T03:32:54;4.90;99.90
1880;DHT22;49285;49.002;8.390;2022-12-10T03:35:21;4.90;99.90
1880;DHT22;49285;49.002;8.390;2022-12-10T03:37:48;5.00;99.90
1880;DHT22;49285;49.002;8.390;2022-12-10T03:40:16;5.00;99.90
1880;DHT22;49285;49.002;8.390;2022-12-10T03:42:43;4.90;99.90
1880;DHT22;49285;49.002;8.390;2022-12-10T03:45:09;4.90;99.90
1880;DHT22;49285;49.002;8.390;2022-12-10T03:47:35;4.80;99.90
1880;DHT22;49285;49.002;8.390;2022-12-10T03:50:00;4.90;99.90
1880;DHT22;49285;49.002;8.390;2022-12-10T03:52:26;4.90;99.90
1880;DHT22;49285;49.002;8.390;2022-12-10T03:54:52;4.90;99.90
1880;DHT22;49285;49.002;8.390;2022-12-10T03:57:17;4.90;99.90
1880;DHT22;49285;49.002;8.390;2022-12-10T03:59:43;4.90;99.90
1880;DHT22;49285;49.002;8.390;2022-12-10T04:02:08;5.00;99.90
1880;DHT22;49285;49.002;8.390;2022-12-10T04:04:35;5.00;99.90
1880;DHT22;49285;49.002;8.390;2022-12-10T04:07:01;5.00;99.90
1880;DHT22;49285;49.002;8.390;2022-12-10T04:09:27;4.90;99.90
1880;DHT22;49285;49.002;8.390;2022-12-10T04:11:59;4.90;99.90
1880;DHT22;49285;49.002;8.390;2022-12-10T04:14:26;4.90;99.90
1880;DHT22;49285;49.002;8.390;2022-12-10T04:17:11;4.90;99.90
1880;DHT22;49285;49.002;8.390;2022-12-10T04:19:36;4.90;99.90
1880;DHT22;49285;49.002;8.390;2022-12-10T04:22:03;5.00;99.90
1880;DHT22;49285;49.002;8.390;2022-12-10T04:24:47;5.00;99.90
1880;DHT22;49285;49.002;8.390;2022-12-10T04:27:51;4.90;99.90
1880;DHT22;49285;49.002;8.390;2022-12-10T04:30:16;4.90;99.90
1880;DHT22;49285;49.002;8.390;2022-12-10T04:32:42;4.80;99.90
1880;DHT22;49285;49.002;8.390;2022-12-10T04:35:08;4.80;99.90
1880;DHT22;49285;49.002;8.390;2022-12-10T04:37:34;4.80;99.90
1880;DHT22;49285;49.002;8.390;2022-12-10T04:39:59;4.80;99.90
1880;DHT22;49285;49.002;8.390;2022-12-10T04:42:25;4.80;99.90
1880;DHT22;49285;49.002;8.390;2022-12-10T04:44:50;4.80;99.90
1880;DHT22;49285;49.002;8.390;2022-12-10T04:47:16;4.80;99.90
1880;DHT22;49285;49.002;8.390;2022-12-10T04:49:42;4.80;99.90
1880;DHT22;49285;49.002;8.390;2022-12-10T04:52:10;4.80;99.90
1880;DHT22;49285;49.002;8.390;2022-12-10T04:54:35;4.80;99.90
1880;DHT22;49285;49.002;8.390;2022-12-10T04:57:01;4.70;99.90
1880;DHT22;49285;49.002;8.390;2022-12-10T04:59:26;4.70;99.90
1880;DHT22;49285;49.002;8.390;2022-12-10T05:01:52;4.70;99.90
1880;DHT22;49285;49.002;8.390;2022-12-10T05:04:18;4.60;99.90
1880;DHT22;49285;49.002;8.390;2022-12-10T05:06:44;4.70;99.90
1880;DHT22;49285;49.002;8.390;2022-12-10T05:09:11;4.70;99.90
1880;DHT22;49285;49.002;8.390;2022-12-10T05:11:37;4.70;99.90
1880;DHT22;49285;49.002;8.390;2022-12-10T05:14:03;4.70;99.90
1880;DHT22;49285;49.002;8.390;2022-12-10T05:16:31;4.60;99.90
1880;DHT22;49285;49.002;8.390;2022-12-10T05:18:57;4.60;99.90
1880;DHT22;49285;49.002;8.390;2022-12-10T05:21:24;4.60;99.90
1880;DHT22;49285;49.002;8.390;2022-12-10T05:24:10;4.60;99.90
1880;DHT22;49285;49.002;8.390;2022-12-10T05:26:35;4.60;99.90
1880;DHT22;49285;49.002;8.390;2022-12-10T05:29:01;4.60;99.90
1880;DHT22;49285;49.002;8.390;2022-12-10T05:31:29;4.60;99.90
1880;DHT22;49285;49.002;8.390;2022-12-10T05:33:56;4.60;99.90
1880;DHT22;49285;49.002;8.390;2022-12-10T05:36:25;4.60;99.90
1880;DHT22;49285;49.002;8.390;2022-12-10T05:38:53;4.60;99.90
1880;DHT22;49285;49.002;8.390;2022-12-10T05:41:21;4.60;99.90
1880;DHT22;49285;49.002;8.390;2022-12-10T05:43:47;4.60;99.90
1880;DHT22;49285;49.002;8.390;2022-12-10T05:46:21;4.60;99.90
1880;DHT22;49285;49.002;8.390;2022-12-10T05:48:46;4.60;99.90
1880;DHT22;49285;49.002;8.390;2022-12-10T05:51:15;4.50;99.90
1880;DHT22;49285;49.002;8.390;2022-12-10T05:53:41;4.50;99.90
1880;DHT22;49285;49.002;8.390;2022-12-10T05:56:09;4.60;99.90
1880;DHT22;49285;49.002;8.390;2022-12-10T05:58:36;4.60;99.90
1880;DHT22;49285;49.002;8.390;2022-12-10T06:01:10;4.50;99.90
1880;DHT22;49285;49.002;8.390;2022-12-10T06:03:36;4.50;99.90
1880;DHT22;49285;49.002;8.390;2022-12-10T06:06:02;4.50;99.90
1880;DHT22;49285;49.002;8.390;2022-12-10T06:08:28;4.50;99.90
1880;DHT22;49285;49.002;8.390;2022-12-10T06:10:53;4.50;99.90
1880;DHT22;49285;49.002;8.390;2022-12-10T06:13:19;4.50;99.90
1880;DHT22;49285;49.002;8.390;2022-12-10T06:15:45;4.50;99.90
1880;DHT22;49285;49.002;8.390;2022-12-10T06:18:11;4.50;99.90
1880;DHT22;49285;49.002;8.390;2022-12-10T06:20:38;4.40;99.90
1880;DHT22;49285;49.002;8.390;2022-12-10T06:23:04;4.40;99.90
1880;DHT22;49285;49.002;8.390;2022-12-10T06:25:30;4.30;99.90
1880;DHT22;49285;49.002;8.390;2022-12-10T06:27:55;4.40;99.90
1880;DHT22;49285;49.002;8.390;2022-12-10T06:30:21;4.40;99.90
1880;DHT22;49285;49.002;8.390;2022-12-10T06:32:46;4.40;99.90
1880;DHT22;49285;49.002;8.390;2022-12-10T06:35:12;4.40;99.90
1880;DHT22;49285;49.002;8.390;2022-12-10T06:37:38;4.40;99.90
1880;DHT22;49285;49.002;8.390;2022-12-10T06:40:04;4.40;99.90
1880;DHT22;49285;49.002;8.390;2022-12-10T06:42:30;4.40;99.90
1880;DHT22;49285;49.002;8.390;2022-12-10T06:44:56;4.40;99.90
1880;DHT22;49285;49.002;8.390;2022-12-10T06:47:21;4.40;99.90
1880;DHT22;49285;49.002;8.390;2022-12-10T06:49:47;4.30;99.90
1880;DHT22;49285;49.002;8.390;2022-12-10T06:52:13;4.30;99.90
1880;DHT22;49285;49.002;8.390;2022-12-10T06:54:39;4.40;99.90
1880;DHT22;49285;49.002;8.390;2022-12-10T06:57:04;4.30;99.90
1880;DHT22;49285;49.002;8.390;2022-12-10T06:59:30;4.30;99.90
1880;DHT22;49285;49.002;8.390;2022-12-10T07:01:55;4.30;99.90
1880;DHT22;49285;49.002;8.390;2022-12-10T07:04:21;4.30;99.90
1880;DHT22;49285;49.002;8.390;2022-12-10T07:06:46;4.40;99.90
1880;DHT22;49285;49.002;8.390;2022-12-10T07:09:12;4.40;99.90
1880;DHT22;49285;49.002;8.390;2022-12-10T07:11:38;4.30;99.90
1880;DHT22;49285;49.002;8.390;2022-12-10T07:14:03;4.30;99.90
1880;DHT22;49285;49.002;8.390;2022-12-10T07:16:31;4.30;99.90
1880;DHT22;49285;49.002;8.390;2022-12-10T07:18:58;4.30;99.90
1880;DHT22;49285;49.002;8.390;2022-12-10T07:21:43;4.30;99.90
1880;DHT22;49285;49.002;8.390;2022-12-10T07:24:14;4.30;99.90
1880;DHT22;49285;49.002;8.390;2022-12-10T07:26:41;4.40;99.90
1880;DHT22;49285;49.002;8.390;2022-12-10T07:29:11;4.40;99.90
1880;DHT22;49285;49.002;8.390;2022-12-10T07:31:37;4.40;99.90
1880;DHT22;49285;49.002;8.390;2022-12-10T07:34:03;4.40;99.90
1880;DHT22;49285;49.002;8.390;2022-12-10T07:36:29;4.40;99.90
1880;DHT22;49285;49.002;8.390;2022-12-10T07:38:55;4.40;99.90
1880;DHT22;49285;49.002;8.390;2022-12-10T07:41:22;4.40;99.90
1880;DHT22;49285;49.002;8.390;2022-12-10T07:43:48;4.40;99.90
1880;DHT22;49285;49.002;8.390;2022-12-10T07:46:20;4.40;99.90
1880;DHT22;49285;49.002;8.390;2022-12-10T07:48:47;4.40;99.90
1880;DHT22;49285;49.002;8.390;2022-12-10T07:51:14;4.40;99.90
1880;DHT22;49285;49.002;8.390;2022-12-10T07:53:40;4.40;99.90
1880;DHT22;49285;49.002;8.390;2022-12-10T07:56:06;4.40;99.90
1880;DHT22;49285;49.002;8.390;2022-12-10T07:58:32;4.40;99.90
1880;DHT22;49285;49.002;8.390;2022-12-10T08:00:58;4.40;99.90
1880;DHT22;49285;49.002;8.390;2022-12-10T08:03:24;4.40;99.90
1880;DHT22;49285;49.002;8.390;2022-12-10T08:06:01;4.40;99.90
1880;DHT22;49285;49.002;8.390;2022-12-10T08:08:26;4.40;99.90
1880;DHT22;49285;49.002;8.390;2022-12-10T08:10:52;4.40;99.90
1880;DHT22;49285;49.002;8.390;2022-12-10T08:13:17;4.30;99.90
1880;DHT22;49285;49.002;8.390;2022-12-10T08:15:43;4.30;99.90
1880;DHT22;49285;49.002;8.390;2022-12-10T08:18:08;4.40;99.90
1880;DHT22;49285;49.002;8.390;2022-12-10T08:20:35;4.40;99.90
1880;DHT22;49285;49.002;8.390;2022-12-10T08:23:00;4.40;99.90
1880;DHT22;49285;49.002;8.390;2022-12-10T08:25:26;4.40;99.90
1880;DHT22;49285;49.002;8.390;2022-12-10T08:27:52;4.40;99.90
1880;DHT22;49285;49.002;8.390;2022-12-10T08:30:17;4.40;99.90
1880;DHT22;49285;49.002;8.390;2022-12-10T08:32:43;4.40;99.90
1880;DHT22;49285;49.002;8.390;2022-12-10T08:35:09;4.40;99.90
1880;DHT22;49285;49.002;8.390;2022-12-10T08:37:34;4.30;99.90
1880;DHT22;49285;49.002;8.390;2022-12-10T08:40:00;4.40;99.90
1880;DHT22;49285;49.002;8.390;2022-12-10T08:42:25;4.30;99.90
1880;DHT22;49285;49.002;8.390;2022-12-10T08:44:51;4.40;99.90
1880;DHT22;49285;49.002;8.390;2022-12-10T08:47:16;4.30;99.90
1880;DHT22;49285;49.002;8.390;2022-12-10T08:49:42;4.40;99.90
1880;DHT22;49285;49.002;8.390;2022-12-10T08:52:08;4.30;99.90
1880;DHT22;49285;49.002;8.390;2022-12-10T08:54:33;4.40;99.90
1880;DHT22;49285;49.002;8.390;2022-12-10T08:56:59;4.40;99.90
1880;DHT22;49285;49.002;8.390;2022-12-10T08:59:25;4.40;99.90
1880;DHT22;49285;49.002;8.390;2022-12-10T09:01:53;4.40;99.90
1880;DHT22;49285;49.002;8.390;2022-12-10T09:04:19;4.40;99.90
1880;DHT22;49285;49.002;8.390;2022-12-10T09:06:44;4.50;99.90
1880;DHT22;49285;49.002;8.390;2022-12-10T09:09:10;4.50;99.90
1880;DHT22;49285;49.002;8.390;2022-12-10T09:11:36;4.50;99.90
1880;DHT22;49285;49.002;8.390;2022-12-10T09:14:01;4.60;99.90
1880;DHT22;49285;49.002;8.390;2022-12-10T09:16:37;4.50;99.90
1880;DHT22;49285;49.002;8.390;2022-12-10T09:19:04;4.50;99.90
1880;DHT22;49285;49.002;8.390;2022-12-10T09:21:30;4.60;99.90
1880;DHT22;49285;49.002;8.390;2022-12-10T09:23:57;4.70;99.90
1880;DHT22;49285;49.002;8.390;2022-12-10T09:26:23;4.60;99.90
1880;DHT22;49285;49.002;8.390;2022-12-10T09:28:49;4.70;99.90
1880;DHT22;49285;49.002;8.390;2022-12-10T09:31:17;4.70;99.90
1880;DHT22;49285;49.002;8.390;2022-12-10T09:33:43;4.70;99.90
1880;DHT22;49285;49.002;8.390;2022-12-10T09:36:11;4.70;99.90
1880;DHT22;49285;49.002;8.390;2022-12-10T09:38:38;4.60;99.90
1880;DHT22;49285;49.002;8.390;2022-12-10T09:43:56;4.80;99.90
1880;DHT22;49285;49.002;8.390;2022-12-10T09:46:51;4.80;99.90
1880;DHT22;49285;49.002;8.390;2022-12-10T09:51:50;4.80;99.90
1880;DHT22;49285;49.002;8.390;2022-12-10T09:54:25;4.80;99.90
1880;DHT22;49285;49.002;8.390;2022-12-10T09:56:52;4.80;99.90
1880;DHT22;49285;49.002;8.390;2022-12-10T09:59:34;4.70;99.90
1880;DHT22;49285;49.002;8.390;2022-12-10T10:02:25;4.70;99.90
1880;DHT22;49285;49.002;8.390;2022-12-10T10:04:58;4.80;99.90
1880;DHT22;49285;49.002;8.390;2022-12-10T10:07:28;4.80;99.90
1880;DHT22;49285;49.002;8.390;2022-12-10T10:10:07;4.80;99.90
1880;DHT22;49285;49.002;8.390;2022-12-10T10:12:37;4.90;99.90
1880;DHT22;49285;49.002;8.390;2022-12-10T10:15:14;4.90;99.90
1880;DHT22;49285;49.002;8.390;2022-12-10T10:17:41;4.90;99.90
1880;DHT22;49285;49.002;8.390;2022-12-10T10:20:11;4.90;99.90
1880;DHT22;49285;49.002;8.390;2022-12-10T10:22:38;4.90;99.90
1880;DHT22;49285;49.002;8.390;2022-12-10T10:25:05;4.80;99.90
1880;DHT22;49285;49.002;8.390;2022-12-10T10:27:31;4.90;99.90
1880;DHT22;49285;49.002;8.390;2022-12-10T10:30:01;4.90;99.90
1880;DHT22;49285;49.002;8.390;2022-12-10T10:32:45;4.90;99.90
1880;DHT22;49285;49.002;8.390;2022-12-10T10:38:01;4.90;99.90
1880;DHT22;49285;49.002;8.390;2022-12-10T10:40:40;4.90;99.90
1880;DHT22;49285;49.002;8.390;2022-12-10T10:43:31;5.00;99.90
1880;DHT22;49285;49.002;8.390;2022-12-10T10:46:06;5.00;99.90
1880;DHT22;49285;49.002;8.390;2022-12-10T10:48:36;5.00;99.90
1880;DHT22;49285;49.002;8.390;2022-12-10T10:56:22;5.00;99.90
1880;DHT22;49285;49.002;8.390;2022-12-10T10:59:02;5.10;99.90
1880;DHT22;49285;49.002;8.390;2022-12-10T11:01:48;5.10;99.90
1880;DHT22;49285;49.002;8.390;2022-12-10T11:04:16;5.10;99.90
1880;DHT22;49285;49.002;8.390;2022-12-10T11:06:43;5.20;99.90
1880;DHT22;49285;49.002;8.390;2022-12-10T11:09:25;5.10;99.90
1880;DHT22;49285;49.002;8.390;2022-12-10T11:12:01;5.20;99.90
1880;DHT22;49285;49.002;8.390;2022-12-10T11:14:35;5.20;99.90
1880;DHT22;49285;49.002;8.390;2022-12-10T11:17:20;5.10;99.90
1880;DHT22;49285;49.002;8.390;2022-12-10T11:22:27;5.10;99.90
1880;DHT22;49285;49.002;8.390;2022-12-10T11:24:54;5.20;99.90
1880;DHT22;49285;49.002;8.390;2022-12-10T11:30:03;5.10;99.90
1880;DHT22;49285;49.002;8.390;2022-12-10T11:35:43;5.30;99.90
1880;DHT22;49285;49.002;8.390;2022-12-10T11:38:26;5.30;99.90
1880;DHT22;49285;49.002;8.390;2022-12-10T11:41:10;5.30;99.90
1880;DHT22;49285;49.002;8.390;2022-12-10T11:51:35;5.50;99.90
1880;DHT22;49285;49.002;8.390;2022-12-10T11:54:12;5.50;99.90
1880;DHT22;49285;49.002;8.390;2022-12-10T11:56:45;5.50;99.90
1880;DHT22;49285;49.002;8.390;2022-12-10T12:05:19;5.60;99.90
1880;DHT22;49285;49.002;8.390;2022-12-10T12:13:12;5.60;99.90
1880;DHT22;49285;49.002;8.390;2022-12-10T12:18:33;5.60;99.90
1880;DHT22;49285;49.002;8.390;2022-12-10T12:21:04;5.60;99.90
1880;DHT22;49285;49.002;8.390;2022-12-10T12:23:56;5.60;99.90
1880;DHT22;49285;49.002;8.390;2022-12-10T12:26:39;5.60;99.90
1880;DHT22;49285;49.002;8.390;2022-12-10T12:29:23;5.60;99.90
1880;DHT22;49285;49.002;8.390;2022-12-10T12:32:21;5.50;99.90
1880;DHT22;49285;49.002;8.390;2022-12-10T12:34:50;5.50;99.90
1880;DHT22;49285;49.002;8.390;2022-12-10T12:37:20;5.50;99.90
1880;DHT22;49285;49.002;8.390;2022-12-10T12:39:57;5.50;99.90
1880;DHT22;49285;49.002;8.390;2022-12-10T12:42:37;5.60;99.90
1880;DHT22;49285;49.002;8.390;2022-12-10T12:45:20;5.70;99.90
1880;DHT22;49285;49.002;8.390;2022-12-10T12:47:58;5.70;99.90
1880;DHT22;49285;49.002;8.390;2022-12-10T12:50:59;5.70;99.90
1880;DHT22;49285;49.002;8.390;2022-12-10T12:53:25;5.80;99.90
1880;DHT22;49285;49.002;8.390;2022-12-10T13:01:29;5.80;99.90
1880;DHT22;49285;49.002;8.390;2022-12-10T13:03:56;5.70;99.90
1880;DHT22;49285;49.002;8.390;2022-12-10T13:06:32;5.70;99.90
1880;DHT22;49285;49.002;8.390;2022-12-10T13:09:16;5.70;99.90
1880;DHT22;49285;49.002;8.390;2022-12-10T13:11:45;5.70;99.90
1880;DHT22;49285;49.002;8.390;2022-12-10T13:14:28;5.60;99.90
1880;DHT22;49285;49.002;8.390;2022-12-10T13:17:24;5.50;99.90
1880;DHT22;49285;49.002;8.390;2022-12-10T13:19:50;5.50;99.90
1880;DHT22;49285;49.002;8.390;2022-12-10T13:25:19;5.40;99.90
1880;DHT22;49285;49.002;8.390;2022-12-10T13:28:21;5.40;99.90
1880;DHT22;49285;49.002;8.390;2022-12-10T13:33:51;5.40;99.90
1880;DHT22;49285;49.002;8.390;2022-12-10T13:37:03;5.40;99.90
1880;DHT22;49285;49.002;8.390;2022-12-10T13:41:33;5.50;99.90
1880;DHT22;49285;49.002;8.390;2022-12-10T13:44:47;5.50;99.90
1880;DHT22;49285;49.002;8.390;2022-12-10T13:47:27;5.30;99.90
1880;DHT22;49285;49.002;8.390;2022-12-10T13:50:03;5.40;99.90
1880;DHT22;49285;49.002;8.390;2022-12-10T13:52:35;5.40;99.90
1880;DHT22;49285;49.002;8.390;2022-12-10T13:55:25;5.40;99.90
1880;DHT22;49285;49.002;8.390;2022-12-10T14:03:40;5.40;99.90
1880;DHT22;49285;49.002;8.390;2022-12-10T14:11:28;5.40;99.90
1880;DHT22;49285;49.002;8.390;2022-12-10T14:13:57;5.40;99.90
1880;DHT22;49285;49.002;8.390;2022-12-10T14:16:24;5.40;99.90
1880;DHT22;49285;49.002;8.390;2022-12-10T14:18:55;5.40;99.90
1880;DHT22;49285;49.002;8.390;2022-12-10T14:21:23;5.40;99.90
1880;DHT22;49285;49.002;8.390;2022-12-10T14:23:52;5.40;99.90
1880;DHT22;49285;49.002;8.390;2022-12-10T14:26:33;5.40;99.90
1880;DHT22;49285;49.002;8.390;2022-12-10T14:31:39;5.40;99.90
1880;DHT22;49285;49.002;8.390;2022-12-10T14:34:10;5.40;99.90
1880;DHT22;49285;49.002;8.390;2022-12-10T14:36:44;5.40;99.90
1880;DHT22;49285;49.002;8.390;2022-12-10T14:39:31;5.30;99.90
1880;DHT22;49285;49.002;8.390;2022-12-10T14:42:00;5.30;99.90
1880;DHT22;49285;49.002;8.390;2022-12-10T14:44:27;5.40;99.90
1880;DHT22;49285;49.002;8.390;2022-12-10T14:47:15;5.30;99.90
1880;DHT22;49285;49.002;8.390;2022-12-10T14:49:47;5.20;99.90
1880;DHT22;49285;49.002;8.390;2022-12-10T14:52:16;5.20;99.90
1880;DHT22;49285;49.002;8.390;2022-12-10T14:54:43;5.20;99.90
1880;DHT22;49285;49.002;8.390;2022-12-10T14:57:22;5.20;99.90
1880;DHT22;49285;49.002;8.390;2022-12-10T15:04:52;5.20;99.90
1880;DHT22;49285;49.002;8.390;2022-12-10T15:07:32;5.20;99.90
1880;DHT22;49285;49.002;8.390;2022-12-10T15:10:01;5.20;99.90
1880;DHT22;49285;49.002;8.390;2022-12-10T15:12:37;5.20;99.90
1880;DHT22;49285;49.002;8.390;2022-12-10T15:15:22;5.20;99.90
1880;DHT22;49285;49.002;8.390;2022-12-10T15:20:24;5.10;99.90
1880;DHT22;49285;49.002;8.390;2022-12-10T15:22:50;5.10;99.90
1880;DHT22;49285;49.002;8.390;2022-12-10T15:25:25;5.20;99.90
1880;DHT22;49285;49.002;8.390;2022-12-10T15:27:56;5.10;99.90
1880;DHT22;49285;49.002;8.390;2022-12-10T15:30:25;5.10;99.90
1880;DHT22;49285;49.002;8.390;2022-12-10T15:32:57;5.10;99.90
1880;DHT22;49285;49.002;8.390;2022-12-10T15:35:23;5.20;99.90
1880;DHT22;49285;49.002;8.390;2022-12-10T15:37:50;5.20;99.90
1880;DHT22;49285;49.002;8.390;2022-12-10T15:40:36;5.20;99.90
1880;DHT22;49285;49.002;8.390;2022-12-10T15:43:25;5.20;99.90
1880;DHT22;49285;49.002;8.390;2022-12-10T15:45:51;5.20;99.90
1880;DHT22;49285;49.002;8.390;2022-12-10T15:48:17;5.20;99.90
1880;DHT22;49285;49.002;8.390;2022-12-10T15:50:44;5.20;99.90
1880;DHT22;49285;49.002;8.390;2022-12-10T15:53:16;5.20;99.90
1880;DHT22;49285;49.002;8.390;2022-12-10T15:55:45;5.20;99.90
1880;DHT22;49285;49.002;8.390;2022-12-10T15:58:12;5.20;99.90
1880;DHT22;49285;49.002;8.390;2022-12-10T16:00:39;5.20;99.90
1880;DHT22;49285;49.002;8.390;2022-12-10T16:03:10;5.20;99.90
1880;DHT22;49285;49.002;8.390;2022-12-10T16:05:40;5.20;99.90
1880;DHT22;49285;49.002;8.390;2022-12-10T16:08:24;5.20;99.90
1880;DHT22;49285;49.002;8.390;2022-12-10T16:10:52;5.20;99.90
1880;DHT22;49285;49.002;8.390;2022-12-10T16:13:22;5.20;99.90
1880;DHT22;49285;49.002;8.390;2022-12-10T16:15:54;5.20;99.90
1880;DHT22;49285;49.002;8.390;2022-12-10T16:18:22;5.20;99.90
1880;DHT22;49285;49.002;8.390;2022-12-10T16:20:48;5.20;99.90
1880;DHT22;49285;49.002;8.390;2022-12-10T16:23:14;5.20;99.90
1880;DHT22;49285;49.002;8.390;2022-12-10T16:25:41;5.20;99.90
1880;DHT22;49285;49.002;8.390;2022-12-10T16:28:11;5.20;99.90
1880;DHT22;49285;49.002;8.390;2022-12-10T16:30:51;5.20;99.90
1880;DHT22;49285;49.002;8.390;2022-12-10T16:33:17;5.10;99.90
1880;DHT22;49285;49.002;8.390;2022-12-10T16:35:43;5.10;99.90
1880;DHT22;49285;49.002;8.390;2022-12-10T16:38:09;5.10;99.90
1880;DHT22;49285;49.002;8.390;2022-12-10T16:40:35;5.00;99.90
1880;DHT22;49285;49.002;8.390;2022-12-10T16:43:01;5.00;99.90
1880;DHT22;49285;49.002;8.390;2022-12-10T16:45:36;4.90;99.90
1880;DHT22;49285;49.002;8.390;2022-12-10T16:48:03;4.80;99.90
1880;DHT22;49285;49.002;8.390;2022-12-10T16:50:29;4.90;99.90
1880;DHT22;49285;49.002;8.390;2022-12-10T16:52:55;4.90;99.90
1880;DHT22;49285;49.002;8.390;2022-12-10T16:55:23;4.90;99.90
1880;DHT22;49285;49.002;8.390;2022-12-10T16:57:49;4.90;99.90
1880;DHT22;49285;49.002;8.390;2022-12-10T17:00:18;4.90;99.90
1880;DHT22;49285;49.002;8.390;2022-12-10T17:02:45;4.90;99.90
1880;DHT22;49285;49.002;8.390;2022-12-10T17:05:24;4.90;99.90
1880;DHT22;49285;49.002;8.390;2022-12-10T17:07:51;4.90;99.90
1880;DHT22;49285;49.002;8.390;2022-12-10T17:10:17;4.90;99.90
1880;DHT22;49285;49.002;8.390;2022-12-10T17:13:03;4.80;99.90
1880;DHT22;49285;49.002;8.390;2022-12-10T17:15:28;4.80;99.90
1880;DHT22;49285;49.002;8.390;2022-12-10T17:17:54;4.80;99.90
1880;DHT22;49285;49.002;8.390;2022-12-10T17:20:19;4.80;99.90
1880;DHT22;49285;49.002;8.390;2022-12-10T17:22:45;4.80;99.90
1880;DHT22;49285;49.002;8.390;2022-12-10T17:25:11;4.80;99.90
1880;DHT22;49285;49.002;8.390;2022-12-10T17:27:36;4.80;99.90
1880;DHT22;49285;49.002;8.390;2022-12-10T17:30:03;4.80;99.90
1880;DHT22;49285;49.002;8.390;2022-12-10T17:32:29;4.80;99.90
1880;DHT22;49285;49.002;8.390;2022-12-10T17:34:55;4.80;99.90
1880;DHT22;49285;49.002;8.390;2022-12-10T17:37:21;4.80;99.90
1880;DHT22;49285;49.002;8.390;2022-12-10T17:39:47;4.80;99.90
1880;DHT22;49285;49.002;8.390;2022-12-10T17:42:13;4.80;99.90
1880;DHT22;49285;49.002;8.390;2022-12-10T17:44:39;4.90;99.90
1880;DHT22;49285;49.002;8.390;2022-12-10T17:47:16;4.90;99.90
1880;DHT22;49285;49.002;8.390;2022-12-10T17:49:44;4.80;99.90
1880;DHT22;49285;49.002;8.390;2022-12-10T17:52:09;4.90;99.90